Urbanette, Arkansas
Current Conditions -  °F | °C
As of 9:53 PM on Tuesday 27 Jan 2015 (Local Time) from KHRO Reporting Station
Clear Clear  
Wind Chill: 42°   Ceiling: Unl
Heat Index: 46°   Visibility: 10mi
Dew Point: 29°   Wind: 8mph
Humidity: 51%   Direction: 140°SE
Pressure: 30.14"   Gusts: NA
Location:  36.3056°N, 93.5491°W
Report Text: KHRO 280353Z AUTO 14007KT 10SM CLR 08/M02 A3014 RMK AO2 SLP207 T00781017
Loading
Personal Weather Stations






























Interactive Weather Map New forecast layout! Learn more

10-Day Weather Forecast

Advertisements
Track Severe Weather on mobile